Time;durP1;ratioP1;P1;durP2;ratioP2;P2;SDS_P1;SDS_P2;PMS_P1;PMS_P2;Temp;Humidity;BMP_temperature;BMP_pressure;BME280_temperature;BME280_humidity;BME280_pressure;Samples;Min_cycle;Max_cycle;Signal;HPM_P1;HPM_P2
2021/07/08 00:00:33;;;;;;;12.70;5.25;;;;;;;22.11;69.05;97059.88;128040;1091;47260;-95
2021/07/08 00:03:25;;;;;;;7.68;5.33;;;;;;;22.11;68.77;97063.36;128214;1093;34442;-94
2021/07/08 00:05:57;;;;;;;6.50;5.33;;;;;;;22.11;68.49;97057.17;128115;1092;40464;-94
2021/07/08 00:08:28;;;;;;;8.58;5.00;;;;;;;22.16;68.28;97060.41;127978;1093;55994;-94
2021/07/08 00:11:00;;;;;;;8.38;5.20;;;;;;;22.27;68.13;97063.42;127987;1092;54397;-93
2021/07/08 00:13:33;;;;;;;9.28;5.28;;;;;;;22.37;67.54;97068.32;128038;1092;39697;-93
2021/07/08 00:16:04;;;;;;;6.78;4.50;;;;;;;22.48;67.82;97063.22;128065;1092;32532;-94
2021/07/08 00:18:37;;;;;;;7.15;5.03;;;;;;;22.55;67.55;97062.65;128128;1091;31854;-93
2021/07/08 00:21:08;;;;;;;9.13;5.45;;;;;;;22.56;67.66;97059.59;127879;1092;61140;-94
2021/07/08 00:23:41;;;;;;;7.80;5.15;;;;;;;22.47;67.30;97072.46;128100;1093;53031;-94
2021/07/08 00:26:13;;;;;;;8.15;5.30;;;;;;;22.42;67.87;97070.02;128000;1092;46715;-92
2021/07/08 00:28:45;;;;;;;9.60;5.23;;;;;;;22.28;67.95;97067.70;128122;1091;38117;-95
2021/07/08 00:31:16;;;;;;;9.30;5.00;;;;;;;22.15;68.07;97069.64;128068;1093;62936;-93
2021/07/08 00:33:48;;;;;;;7.53;5.37;;;;;;;22.01;68.58;97063.02;128051;1093;34757;-94
2021/07/08 00:36:20;;;;;;;7.75;5.10;;;;;;;21.83;68.66;97063.28;128118;1093;34380;-92
2021/07/08 00:38:51;;;;;;;9.60;5.08;;;;;;;21.72;69.21;97056.77;128044;1090;36022;-92
2021/07/08 00:41:24;;;;;;;8.53;4.85;;;;;;;21.62;69.16;97063.39;128082;1093;36206;-93
2021/07/08 00:43:55;;;;;;;6.05;4.78;;;;;;;21.56;69.29;97056.66;128088;1090;33921;-92
2021/07/08 00:46:27;;;;;;;7.33;4.65;;;;;;;21.49;69.51;97053.73;128102;1090;25644;-92
2021/07/08 00:48:58;;;;;;;8.43;4.83;;;;;;;21.44;69.52;97056.66;128119;1092;30164;-92
2021/07/08 00:51:30;;;;;;;7.13;4.58;;;;;;;21.43;69.86;97054.30;128099;1092;35456;-91
2021/07/08 00:54:02;;;;;;;7.95;4.65;;;;;;;21.36;70.08;97054.07;128076;1093;29641;-94
2021/07/08 00:56:35;;;;;;;9.80;4.95;;;;;;;21.31;70.25;97055.09;128110;1090;36365;-92
2021/07/08 00:59:09;;;;;;;7.28;4.58;;;;;;;21.26;70.13;97053.41;128336;1092;38674;-94
2021/07/08 01:01:42;;;;;;;8.70;4.63;;;;;;;21.30;69.85;97050.82;128306;1091;35095;-92
2021/07/08 01:04:15;;;;;;;9.78;4.60;;;;;;;21.42;69.84;97047.34;128274;1089;38756;-92
2021/07/08 01:06:47;;;;;;;7.13;4.53;;;;;;;21.55;69.83;97054.31;128197;1093;30056;-93
2021/07/08 01:09:18;;;;;;;7.30;4.73;;;;;;;21.57;69.51;97038.56;128157;1091;37607;-92
2021/07/08 01:11:50;;;;;;;6.58;4.73;;;;;;;21.62;69.44;97044.50;128149;1092;31808;-94
2021/07/08 01:14:21;;;;;;;7.80;4.93;;;;;;;21.62;69.35;97041.02;128214;1090;30292;-92
2021/07/08 01:16:53;;;;;;;7.80;4.00;;;;;;;21.59;69.36;97047.10;128035;1090;41081;-93
2021/07/08 01:19:25;;;;;;;8.63;4.50;;;;;;;21.61;69.23;97052.95;128072;1093;38598;-93
2021/07/08 01:21:57;;;;;;;7.10;4.77;;;;;;;21.55;69.27;97052.39;128097;1090;40505;-93
2021/07/08 01:24:29;;;;;;;10.00;4.95;;;;;;;21.39;69.54;97056.88;128098;1092;45269;-93
2021/07/08 01:27:01;;;;;;;5.78;4.70;;;;;;;21.23;70.30;97051.33;128139;1093;38432;-93
2021/07/08 01:29:34;;;;;;;7.00;4.73;;;;;;;21.15;70.27;97070.33;128017;1093;44071;-91
2021/07/08 01:32:07;;;;;;;7.38;4.70;;;;;;;21.07;70.28;97071.98;128138;1090;36341;-92
2021/07/08 01:34:38;;;;;;;6.90;4.40;;;;;;;21.08;70.02;97070.86;128165;1093;34897;-94
2021/07/08 01:37:10;;;;;;;7.45;4.43;;;;;;;21.15;70.18;97056.84;128182;1093;34921;-92
2021/07/08 01:39:41;;;;;;;5.50;4.05;;;;;;;21.21;69.75;97061.67;128046;1091;36520;-92
2021/07/08 01:42:13;;;;;;;9.80;4.63;;;;;;;21.22;70.16;97065.94;128054;1092;33061;-93
2021/07/08 01:44:44;;;;;;;6.10;4.43;;;;;;;21.28;70.05;97067.34;128140;1090;30675;-92
2021/07/08 01:47:16;;;;;;;9.05;5.38;;;;;;;21.26;69.87;97071.50;128086;1090;37613;-92
2021/07/08 01:49:48;;;;;;;6.08;4.25;;;;;;;21.13;69.95;97081.45;128075;1090;30678;-92
2021/07/08 01:52:19;;;;;;;6.05;4.15;;;;;;;20.98;70.20;97079.41;128101;1090;38779;-92
2021/07/08 01:54:51;;;;;;;8.03;4.30;;;;;;;20.95;70.05;97071.95;128099;1090;33498;-93
2021/07/08 01:57:22;;;;;;;7.40;4.88;;;;;;;21.01;70.28;97081.42;128140;1090;30116;-93
2021/07/08 01:59:54;;;;;;;5.53;4.53;;;;;;;21.13;70.46;97078.75;128119;1090;35001;-93
2021/07/08 02:02:25;;;;;;;9.60;5.20;;;;;;;21.16;70.58;97075.38;128065;1092;35741;-94
2021/07/08 02:04:56;;;;;;;6.95;5.33;;;;;;;20.95;70.28;97077.35;128069;1093;36602;-94
2021/07/08 02:07:28;;;;;;;7.03;4.83;;;;;;;20.83;70.73;97080.83;128090;1092;45500;-93
2021/07/08 02:10:00;;;;;;;5.38;4.15;;;;;;;20.80;70.76;97075.30;128057;1093;35412;-93
2021/07/08 02:12:31;;;;;;;6.60;4.50;;;;;;;20.78;71.12;97082.92;128125;1091;29968;-94
2021/07/08 02:15:03;;;;;;;6.65;5.30;;;;;;;20.65;71.28;97080.19;128106;1090;39322;-93
2021/07/08 02:17:35;;;;;;;5.95;4.78;;;;;;;20.65;71.36;97080.19;128166;1093;32192;-92
2021/07/08 02:20:10;;;;;;;7.98;5.10;;;;;;;20.72;71.40;97096.62;128150;1090;50661;-94
2021/07/08 02:22:42;;;;;;;7.80;5.00;;;;;;;20.67;71.60;97104.89;128076;1093;35114;-94
2021/07/08 02:25:15;;;;;;;9.75;5.65;;;;;;;20.53;71.38;97107.08;128104;1091;31099;-92
2021/07/08 02:27:47;;;;;;;9.20;5.33;;;;;;;20.56;71.78;97109.13;128117;1090;34721;-93
2021/07/08 02:30:21;;;;;;;8.58;5.23;;;;;;;20.68;72.13;97109.16;128105;1092;32946;-92
2021/07/08 02:32:55;;;;;;;8.60;5.47;;;;;;;20.74;72.00;97102.45;128071;1090;38685;-92
2021/07/08 02:35:28;;;;;;;9.30;5.05;;;;;;;20.53;71.78;97108.98;128082;1092;31089;-91
2021/07/08 02:38:00;;;;;;;7.33;4.90;;;;;;;20.43;72.03;97110.19;128089;1091;36784;-93
2021/07/08 02:40:35;;;;;;;8.05;4.88;;;;;;;20.40;72.20;97121.56;128051;1092;29197;-93
2021/07/08 02:43:07;;;;;;;6.03;4.43;;;;;;;20.42;72.12;97125.56;128161;1090;26700;-92
2021/07/08 02:45:42;;;;;;;9.48;4.80;;;;;;;20.48;72.21;97109.19;128124;1092;36617;-92
2021/07/08 02:48:16;;;;;;;6.15;4.88;;;;;;;20.62;72.26;97115.88;128104;1090;42454;-94
2021/07/08 02:50:50;;;;;;;8.18;4.93;;;;;;;20.66;71.42;97122.17;128119;1093;47532;-94
2021/07/08 02:53:23;;;;;;;8.60;5.20;;;;;;;20.63;71.48;97130.14;128099;1090;42340;-94
2021/07/08 02:55:55;;;;;;;7.63;4.25;;;;;;;20.50;71.35;97131.98;127993;1090;47726;-94
2021/07/08 02:58:26;;;;;;;8.10;4.30;;;;;;;20.58;71.76;97124.96;128035;1093;59216;-94
2021/07/08 03:00:58;;;;;;;6.00;4.10;;;;;;;20.65;71.58;97117.13;128053;1090;86133;-93
2021/07/08 03:03:30;;;;;;;5.78;4.40;;;;;;;20.74;71.12;97124.02;128109;1091;36058;-94
2021/07/08 03:06:02;;;;;;;6.58;4.70;;;;;;;20.78;71.40;97134.91;128030;1093;59861;-93
2021/07/08 03:08:34;;;;;;;6.55;4.60;;;;;;;20.59;71.02;97132.71;127972;1092;46462;-93
2021/07/08 03:11:06;;;;;;;6.23;4.65;;;;;;;20.37;71.50;97116.84;128199;1090;38294;-93
2021/07/08 03:13:38;;;;;;;6.68;4.53;;;;;;;20.28;72.10;97124.22;128141;1092;32934;-93
2021/07/08 03:16:10;;;;;;;8.30;4.45;;;;;;;20.16;72.29;97122.23;128210;1090;35286;-93
2021/07/08 03:18:42;;;;;;;7.73;4.55;;;;;;;20.05;72.52;97127.21;128153;1092;35830;-94
2021/07/08 03:21:14;;;;;;;8.50;5.20;;;;;;;19.96;72.85;97131.06;128164;1090;39596;-94
2021/07/08 03:23:47;;;;;;;6.35;4.98;;;;;;;19.86;73.18;97132.25;128125;1090;37293;-94
2021/07/08 03:26:20;;;;;;;10.28;4.75;;;;;;;19.80;73.41;97139.70;128155;1091;47875;-94
2021/07/08 03:28:52;;;;;;;8.17;4.47;;;;;;;19.74;73.73;97137.53;128118;1093;44437;-94
2021/07/08 03:31:24;;;;;;;9.28;5.00;;;;;;;19.78;73.78;97131.16;128184;1092;66260;-89
2021/07/08 03:33:55;;;;;;;7.15;4.48;;;;;;;19.78;73.59;97130.38;128069;1093;31760;-90
2021/07/08 03:36:27;;;;;;;6.60;4.93;;;;;;;19.79;73.86;97137.33;128151;1093;29297;-90
2021/07/08 03:38:59;;;;;;;6.63;4.43;;;;;;;19.85;73.99;97134.15;128068;1092;30241;-90
2021/07/08 03:41:30;;;;;;;7.10;4.03;;;;;;;20.06;73.99;97144.94;128107;1090;28556;-90
2021/07/08 03:44:02;;;;;;;7.10;4.70;;;;;;;20.28;73.69;97143.06;128068;1090;29043;-90
2021/07/08 03:46:33;;;;;;;5.78;4.28;;;;;;;20.45;73.50;97140.27;128073;1093;26868;-90
2021/07/08 03:49:05;;;;;;;6.35;4.30;;;;;;;20.61;73.10;97146.63;128056;1092;29126;-89
2021/07/08 03:51:36;;;;;;;9.30;5.23;;;;;;;20.62;72.99;97142.82;128125;1092;30309;-90
2021/07/08 03:54:08;;;;;;;9.83;6.10;;;;;;;20.53;72.51;97142.09;128103;1092;27800;-90
2021/07/08 03:56:39;;;;;;;7.83;5.70;;;;;;;20.47;73.02;97148.81;128109;1092;37293;-89
2021/07/08 03:59:11;;;;;;;8.10;5.67;;;;;;;20.62;73.05;97150.91;128113;1092;28657;-87
2021/07/08 04:01:43;;;;;;;8.13;4.93;;;;;;;20.82;73.10;97149.30;128042;1092;28978;-89
2021/07/08 04:04:14;;;;;;;10.58;5.78;;;;;;;21.00;72.91;97145.33;128057;1092;27534;-90
2021/07/08 04:06:45;;;;;;;6.30;4.90;;;;;;;21.19;72.71;97152.12;128050;1093;29823;-90
2021/07/08 04:09:17;;;;;;;9.30;4.80;;;;;;;21.31;72.32;97150.27;128019;1092;29685;-90
2021/07/08 04:11:48;;;;;;;6.58;4.58;;;;;;;21.39;72.28;97156.67;128059;1093;29701;-90
2021/07/08 04:14:20;;;;;;;6.93;5.35;;;;;;;21.57;72.09;97157.28;128078;1090;29225;-89
2021/07/08 04:16:51;;;;;;;6.65;5.15;;;;;;;21.73;71.68;97160.10;128081;1090;27493;-90
2021/07/08 04:19:22;;;;;;;7.00;4.90;;;;;;;21.82;71.56;97160.79;128167;1092;30583;-91
2021/07/08 04:21:54;;;;;;;6.98;4.83;;;;;;;21.80;71.08;97166.50;128301;1093;26975;-89
2021/07/08 04:24:25;;;;;;;8.80;5.43;;;;;;;21.82;70.65;97166.19;128081;1092;24594;-90
2021/07/08 04:26:57;;;;;;;7.63;5.10;;;;;;;21.77;70.62;97177.97;128057;1092;29889;-90
2021/07/08 04:29:28;;;;;;;10.23;5.53;;;;;;;21.66;70.27;97176.83;128046;1090;40621;-88
2021/07/08 04:31:59;;;;;;;10.78;5.58;;;;;;;21.81;70.79;97178.87;128090;1090;47071;-89
2021/07/08 04:34:30;;;;;;;11.83;5.48;;;;;;;21.97;70.34;97178.22;128126;1090;25210;-89
2021/07/08 04:37:03;;;;;;;6.35;5.33;;;;;;;21.89;69.63;97175.28;128110;1093;28316;-92
2021/07/08 04:39:34;;;;;;;9.50;4.98;;;;;;;21.85;69.81;97171.69;128168;1091;27938;-90
2021/07/08 04:42:07;;;;;;;9.03;4.30;;;;;;;21.80;69.83;97177.30;128107;1093;27215;-91
2021/07/08 04:44:39;;;;;;;6.73;4.40;;;;;;;22.03;70.09;97179.56;128188;1091;25870;-92
2021/07/08 04:47:10;;;;;;;6.00;4.63;;;;;;;22.20;69.66;97176.64;128171;1092;26024;-91
2021/07/08 04:49:41;;;;;;;8.58;5.10;;;;;;;22.15;69.21;97182.28;128071;1091;29726;-88
2021/07/08 04:52:13;;;;;;;8.30;5.13;;;;;;;22.29;69.54;97179.23;128119;1090;24214;-89
2021/07/08 04:54:45;;;;;;;8.00;5.23;;;;;;;22.26;68.21;97179.92;128109;1090;27505;-88
2021/07/08 04:57:18;;;;;;;9.68;5.23;;;;;;;22.28;68.68;97189.25;128132;1089;48414;-90
2021/07/08 04:59:50;;;;;;;7.88;5.45;;;;;;;22.31;68.83;97180.45;128132;1090;25437;-90
2021/07/08 05:02:21;;;;;;;5.53;4.65;;;;;;;22.43;69.35;97182.36;128120;1092;28381;-93
2021/07/08 05:04:53;;;;;;;6.95;4.70;;;;;;;22.66;68.95;97185.33;128179;1093;34879;-90
2021/07/08 05:07:24;;;;;;;7.33;5.40;;;;;;;22.90;68.11;97181.80;128184;1092;29043;-88
2021/07/08 05:09:55;;;;;;;9.83;5.30;;;;;;;23.07;67.58;97179.56;128091;1093;45207;-88
2021/07/08 05:12:29;;;;;;;6.63;4.85;;;;;;;23.12;66.98;97175.84;128122;1092;30259;-89
2021/07/08 05:15:03;;;;;;;8.23;5.28;;;;;;;23.29;67.21;97175.53;128141;1093;25489;-86
2021/07/08 05:17:34;;;;;;;9.45;5.40;;;;;;;23.69;66.72;97178.13;128151;1091;23964;-88
2021/07/08 05:20:07;;;;;;;7.65;5.35;;;;;;;24.62;66.61;97180.24;128090;1093;23642;-85
2021/07/08 05:22:40;;;;;;;7.03;5.40;;;;;;;26.66;65.97;97174.47;128225;1092;23087;-86
2021/07/08 05:25:14;;;;;;;13.15;4.78;;;;;;;28.87;62.35;97170.98;128138;1092;25002;-88
2021/07/08 05:27:46;;;;;;;6.68;4.73;;;;;;;30.63;58.97;97173.44;128116;1092;24994;-88
2021/07/08 05:30:18;;;;;;;7.23;4.58;;;;;;;32.05;56.32;97171.84;126539;1093;2238646;-86
2021/07/08 05:32:50;;;;;;;7.20;4.68;;;;;;;33.35;53.01;97173.53;128307;1090;40554;-90
2021/07/08 05:35:21;;;;;;;6.90;4.68;;;;;;;34.52;50.73;97165.36;128341;1092;37591;-91
2021/07/08 05:37:53;;;;;;;6.70;4.00;;;;;;;35.36;48.12;97173.10;128331;1090;35410;-92
2021/07/08 05:40:24;;;;;;;6.18;3.63;;;;;;;35.30;44.88;97177.52;128323;1090;32772;-92
2021/07/08 05:42:56;;;;;;;5.50;3.85;;;;;;;34.45;43.66;97170.99;128285;1093;37255;-91
2021/07/08 05:45:28;;;;;;;6.18;4.15;;;;;;;34.55;44.50;97175.53;128211;1090;45731;-93
2021/07/08 05:47:59;;;;;;;5.28;3.65;;;;;;;35.88;44.40;97180.55;128157;1093;31877;-93
2021/07/08 05:50:31;;;;;;;6.83;3.60;;;;;;;37.08;42.97;97178.55;128069;1090;45674;-91
2021/07/08 05:53:03;;;;;;;5.28;3.70;;;;;;;37.85;39.71;97173.83;128045;1089;64520;-93
2021/07/08 05:55:35;;;;;;;6.45;3.75;;;;;;;36.95;37.47;97172.23;128105;1093;36239;-94
2021/07/08 05:58:07;;;;;;;6.08;3.78;;;;;;;36.03;38.86;97171.92;128071;1090;91813;-93
2021/07/08 06:00:38;;;;;;;5.08;3.65;;;;;;;36.47;37.46;97175.94;128086;1090;35810;-93
2021/07/08 06:03:10;;;;;;;6.95;3.85;;;;;;;35.88;38.00;97175.03;128163;1090;36226;-92
2021/07/08 06:05:42;;;;;;;6.93;3.65;;;;;;;37.05;39.40;97173.91;128183;1091;37203;-93
2021/07/08 06:08:13;;;;;;;6.63;3.20;;;;;;;38.43;36.04;97181.00;128001;1092;42989;-95
2021/07/08 06:10:57;;;;;;;7.95;3.63;;;;;;;37.38;34.87;97179.27;127991;1090;34620;-95
2021/07/08 06:13:28;;;;;;;6.95;3.48;;;;;;;37.02;36.46;97174.80;128041;1093;32772;-95
2021/07/08 06:16:00;;;;;;;4.40;3.43;;;;;;;36.86;35.90;97174.85;128051;1093;37097;-95
2021/07/08 06:18:36;;;;;;;4.53;3.28;;;;;;;37.20;34.97;97176.25;127862;1090;91651;-93
2021/07/08 06:21:07;;;;;;;5.08;3.43;;;;;;;37.02;35.00;97179.52;128057;1091;42296;-93
2021/07/08 06:23:39;;;;;;;6.00;3.58;;;;;;;37.36;34.23;97185.25;128085;1093;37556;-93
2021/07/08 06:26:11;;;;;;;6.48;3.98;;;;;;;37.52;34.23;97181.59;127999;1090;94377;-93
2021/07/08 06:28:43;;;;;;;4.33;3.33;;;;;;;37.13;33.47;97175.23;128000;1093;40451;-93
2021/07/08 06:31:15;;;;;;;6.98;3.45;;;;;;;37.65;35.15;97178.83;128093;1093;38531;-93
2021/07/08 06:33:47;;;;;;;4.78;3.03;;;;;;;39.33;34.42;97174.55;127921;1091;63970;-93
2021/07/08 06:36:19;;;;;;;6.10;3.68;;;;;;;40.37;31.59;97176.68;128056;1093;40406;-91
2021/07/08 06:38:51;;;;;;;4.85;3.60;;;;;;;39.42;30.17;97182.16;128064;1090;27660;-89
2021/07/08 06:41:23;;;;;;;6.13;3.10;;;;;;;39.12;32.18;97170.59;128115;1091;23868;-89
2021/07/08 06:43:54;;;;;;;6.20;3.70;;;;;;;40.00;31.38;97171.11;128150;1088;24023;-94
2021/07/08 06:46:29;;;;;;;5.65;3.23;;;;;;;40.60;31.87;97172.55;128192;1090;26886;-92
2021/07/08 06:49:01;;;;;;;5.73;3.23;;;;;;;42.27;31.09;97175.80;128143;1093;22947;-91
2021/07/08 06:51:33;;;;;;;5.65;3.65;;;;;;;43.81;29.52;97166.31;128092;1092;23885;-91
2021/07/08 06:54:06;;;;;;;8.68;3.18;;;;;;;43.94;28.15;97165.97;128309;1092;28687;-90
2021/07/08 06:56:37;;;;;;;7.30;3.45;;;;;;;43.07;26.19;97167.66;128412;1092;23414;-90
2021/07/08 06:59:08;;;;;;;7.00;3.25;;;;;;;41.85;27.22;97175.91;128242;1093;28178;-90
2021/07/08 07:01:40;;;;;;;6.65;3.78;;;;;;;40.98;27.14;97180.39;128183;1093;28349;-92
2021/07/08 07:04:11;;;;;;;4.83;3.40;;;;;;;40.73;27.12;97173.15;128119;1092;23769;-90
2021/07/08 07:06:43;;;;;;;5.43;3.48;;;;;;;39.10;27.33;97175.05;128305;1092;25525;-92
2021/07/08 07:09:14;;;;;;;6.50;3.80;;;;;;;38.38;29.63;97176.05;128100;1091;23068;-91
2021/07/08 07:11:46;;;;;;;5.18;3.35;;;;;;;39.70;28.34;97185.83;128167;1091;37282;-93
2021/07/08 07:14:17;;;;;;;4.85;3.35;;;;;;;39.64;29.44;97185.64;128063;1092;31166;-94
2021/07/08 07:16:49;;;;;;;5.85;3.78;;;;;;;40.94;27.93;97190.89;128080;1091;29087;-93
2021/07/08 07:19:20;;;;;;;4.83;3.15;;;;;;;40.87;27.63;97186.44;128068;1091;31352;-94
2021/07/08 07:21:54;;;;;;;5.63;3.50;;;;;;;41.44;28.39;97183.05;128068;1092;31988;-95
2021/07/08 07:24:26;;;;;;;6.88;3.60;;;;;;;42.27;26.70;97178.59;128062;1093;31125;-95
2021/07/08 07:26:59;;;;;;;6.88;3.73;;;;;;;43.17;27.93;97183.05;128074;1091;29144;-94
2021/07/08 07:29:30;;;;;;;5.43;3.15;;;;;;;45.15;26.09;97172.65;128071;1091;32305;-94
2021/07/08 07:32:02;;;;;;;5.33;3.03;;;;;;;46.48;25.12;97173.99;128055;1093;28503;-96
2021/07/08 07:34:34;;;;;;;6.10;3.43;;;;;;;47.24;24.04;97164.67;128026;1091;40401;-95
2021/07/08 07:37:06;;;;;;;7.58;3.33;;;;;;;46.57;21.88;97162.52;128047;1093;35708;-96
2021/07/08 07:39:37;;;;;;;6.70;2.95;;;;;;;45.49;23.43;97165.30;128136;1093;28947;-94
2021/07/08 07:42:09;;;;;;;4.28;3.18;;;;;;;44.85;23.19;97157.35;128142;1092;25880;-94
2021/07/08 07:44:44;;;;;;;6.10;3.80;;;;;;;44.41;23.34;97150.80;128147;1092;38926;-93
2021/07/08 07:47:16;;;;;;;5.33;3.20;;;;;;;43.38;22.96;97159.58;128010;1092;79815;-92
2021/07/08 07:49:48;;;;;;;4.05;2.98;;;;;;;42.09;25.07;97153.63;128137;1092;30482;-91
2021/07/08 07:52:19;;;;;;;3.83;3.00;;;;;;;44.01;25.96;97154.36;128167;1092;31634;-94
2021/07/08 07:54:53;;;;;;;7.47;3.07;;;;;;;45.97;23.82;97153.36;126910;1092;1735451;-95
2021/07/08 08:03:12;;;;;;;3.53;3.23;;;;;;;43.13;24.09;97152.55;123312;1088;5332494;-96
2021/07/08 08:08:56;;;;;;;5.55;3.65;;;;;;;43.89;22.19;97146.33;126380;1092;2037101;-96
2021/07/08 08:11:30;;;;;;;4.58;3.40;;;;;;;41.70;23.69;97145.20;126488;1093;1774526;-96
2021/07/08 08:14:02;;;;;;;4.63;3.60;;;;;;;41.63;25.51;97142.73;127732;1093;66552;-96
2021/07/08 08:16:37;;;;;;;6.18;3.48;;;;;;;42.96;25.32;97148.73;127831;1093;46910;-96
2021/07/08 08:19:11;;;;;;;6.88;3.53;;;;;;;43.15;24.86;97136.09;126788;1093;1313519;-96
2021/07/08 08:21:44;;;;;;;4.93;3.85;;;;;;;44.91;24.41;97152.62;127135;1093;138253;-96
2021/07/08 08:24:16;;;;;;;4.35;3.85;;;;;;;44.83;22.44;97148.69;126585;1093;266693;-96
2021/07/08 08:26:51;;;;;;;8.13;4.10;;;;;;;43.02;23.54;97149.58;127380;1093;208857;-93
2021/07/08 08:29:25;;;;;;;4.38;3.88;;;;;;;43.19;23.27;97142.23;127684;1093;56771;-92
2021/07/08 08:31:56;;;;;;;5.15;4.00;;;;;;;41.43;24.87;97143.31;127768;1092;38979;-92
2021/07/08 08:34:28;;;;;;;6.20;3.95;;;;;;;41.50;27.04;97139.40;127691;1093;36250;-91
2021/07/08 08:36:59;;;;;;;4.65;4.08;;;;;;;41.67;24.87;97146.16;127712;1093;26494;-93
2021/07/08 08:39:30;;;;;;;6.58;4.50;;;;;;;39.89;26.28;97137.43;127750;1093;25866;-92
2021/07/08 08:42:06;;;;;;;6.88;4.18;;;;;;;39.03;28.20;97133.71;128052;1092;26355;-91
2021/07/08 08:44:38;;;;;;;7.08;4.83;;;;;;;39.14;28.17;97134.11;128031;1093;25865;-92
2021/07/08 08:47:12;;;;;;;5.48;4.63;;;;;;;38.34;28.77;97144.94;128160;1091;24211;-91
2021/07/08 08:49:44;;;;;;;5.33;4.48;;;;;;;37.39;29.57;97139.33;127760;1092;25723;-92
2021/07/08 08:52:16;;;;;;;5.30;4.33;;;;;;;35.97;31.38;97133.81;128149;1093;26652;-92
2021/07/08 08:54:51;;;;;;;5.08;4.25;;;;;;;35.54;32.86;97133.30;128073;1092;30131;-92
2021/07/08 08:57:22;;;;;;;9.03;5.33;;;;;;;34.60;33.60;97133.71;128141;1093;25906;-92
2021/07/08 08:59:54;;;;;;;7.93;4.58;;;;;;;34.44;34.71;97133.64;128102;1092;26247;-91
2021/07/08 09:02:25;;;;;;;6.40;4.35;;;;;;;34.49;34.82;97133.17;128115;1093;23583;-92
2021/07/08 09:04:56;;;;;;;7.73;4.30;;;;;;;34.30;35.48;97117.38;128033;1091;28060;-92
2021/07/08 09:07:31;;;;;;;5.80;4.75;;;;;;;33.89;35.37;97130.28;128151;1091;25805;-91
2021/07/08 09:10:11;;;;;;;6.53;4.95;;;;;;;32.59;36.99;97125.44;128064;1093;29217;-91
2021/07/08 09:12:43;;;;;;;6.05;4.80;;;;;;;31.99;38.56;97115.88;128078;1092;35148;-91
2021/07/08 09:15:20;;;;;;;5.85;4.58;;;;;;;32.09;39.32;97113.00;128022;1093;24751;-91
2021/07/08 09:17:52;;;;;;;6.78;5.03;;;;;;;32.47;39.91;97116.55;127872;1093;25280;-91
2021/07/08 09:20:23;;;;;;;6.63;4.58;;;;;;;32.40;39.91;97111.16;127753;1092;23593;-90
2021/07/08 09:23:11;;;;;;;8.10;5.48;;;;;;;32.27;39.95;97112.84;128099;1093;25866;-91
2021/07/08 09:25:43;;;;;;;8.60;4.85;;;;;;;32.07;40.83;97093.44;128119;1093;24351;-89
2021/07/08 09:28:19;;;;;;;7.83;5.13;;;;;;;32.25;40.87;97093.27;128084;1093;25342;-89
2021/07/08 09:31:00;;;;;;;9.25;4.78;;;;;;;32.27;40.97;97093.63;128056;1093;24216;-87
2021/07/08 09:33:38;;;;;;;7.60;5.20;;;;;;;31.86;40.84;97097.19;127765;1093;24605;-90
2021/07/08 09:36:12;;;;;;;7.28;5.28;;;;;;;31.19;42.10;97103.95;127890;1093;24139;-91
2021/07/08 09:38:46;;;;;;;7.45;4.88;;;;;;;31.27;43.24;97099.22;128090;1093;25039;-90
2021/07/08 09:41:22;;;;;;;9.13;5.53;;;;;;;31.22;42.88;97096.89;128075;1093;25294;-90
2021/07/08 09:43:54;;;;;;;6.78;5.50;;;;;;;30.72;43.65;97095.20;128032;1093;26015;-91
2021/07/08 09:46:38;;;;;;;6.13;5.43;;;;;;;30.69;44.14;97085.06;128060;1092;24887;-90
2021/07/08 09:49:11;;;;;;;8.83;5.18;;;;;;;30.97;44.86;97080.61;128112;1093;26262;-91
2021/07/08 09:51:44;;;;;;;8.40;6.05;;;;;;;30.81;44.46;97080.28;127766;1091;24098;-89
2021/07/08 09:54:42;;;;;;;7.70;5.95;;;;;;;30.63;45.78;97075.69;128109;1091;25588;-90
2021/07/08 09:57:34;;;;;;;9.55;6.00;;;;;;;30.90;45.25;97075.94;128234;1092;24086;-89
2021/07/08 10:00:28;;;;;;;7.20;5.20;;;;;;;30.57;46.43;97065.54;128228;1093;26401;-90
2021/07/08 10:03:01;;;;;;;8.13;5.28;;;;;;;30.77;46.26;97071.32;128124;1092;23430;-91
2021/07/08 10:05:37;;;;;;;7.50;5.25;;;;;;;30.83;46.01;97067.00;127767;1093;24300;-90
2021/07/08 10:08:13;;;;;;;7.43;5.23;;;;;;;30.97;46.62;97073.17;128245;1093;23309;-89
2021/07/08 10:10:44;;;;;;;7.35;5.40;;;;;;;31.24;46.47;97072.60;128128;1093;27145;-88
2021/07/08 10:13:17;;;;;;;8.65;5.10;;;;;;;31.43;46.55;97065.83;128057;1092;23806;-90
2021/07/08 10:15:51;;;;;;;7.83;5.55;;;;;;;31.40;45.68;97061.16;128101;1093;27426;-90
2021/07/08 10:18:24;;;;;;;7.40;5.03;;;;;;;31.41;46.14;97065.45;128083;1093;23893;-90
2021/07/08 10:20:57;;;;;;;8.23;5.63;;;;;;;31.47;45.85;97063.83;128446;1092;27090;-90
2021/07/08 10:23:32;;;;;;;7.40;5.23;;;;;;;31.39;46.61;97056.83;128118;1093;26467;-90
2021/07/08 10:26:06;;;;;;;7.93;5.43;;;;;;;31.49;47.32;97050.49;128060;1093;25070;-89
2021/07/08 10:28:43;;;;;;;10.33;6.13;;;;;;;31.37;46.79;97056.46;128152;1092;55852;-89
2021/07/08 10:31:17;;;;;;;7.78;5.50;;;;;;;31.18;47.52;97055.02;128161;1093;68763;-90
2021/07/08 10:34:08;;;;;;;7.75;5.08;;;;;;;31.37;47.43;97051.76;128024;1092;40890;-89
2021/07/08 10:36:41;;;;;;;6.68;5.23;;;;;;;31.49;48.07;97053.23;128331;1092;34908;-90
2021/07/08 10:39:15;;;;;;;7.75;5.20;;;;;;;31.66;47.54;97046.03;128118;1092;44714;-88
2021/07/08 10:41:49;;;;;;;8.97;5.53;;;;;;;31.40;47.14;97041.98;128084;1093;24480;-90
2021/07/08 10:44:42;;;;;;;5.83;5.15;;;;;;;31.39;48.46;97043.13;128126;1093;23382;-90
2021/07/08 10:47:35;;;;;;;7.40;5.35;;;;;;;31.59;47.76;97039.44;128147;1093;24758;-90
2021/07/08 10:50:29;;;;;;;8.23;5.98;;;;;;;31.48;47.77;97037.97;128126;1092;25386;-91
2021/07/08 10:53:20;;;;;;;8.53;6.13;;;;;;;31.42;48.04;97034.13;128110;1093;54674;-89
2021/07/08 10:55:55;;;;;;;8.58;5.83;;;;;;;31.41;48.46;97030.61;128903;1092;25428;-89
2021/07/08 10:58:49;;;;;;;6.63;5.68;;;;;;;31.55;48.29;97029.70;128103;1093;24436;-89
2021/07/08 11:01:48;;;;;;;7.07;5.63;;;;;;;31.58;48.44;97029.66;128097;1093;26080;-90
2021/07/08 11:04:48;;;;;;;7.48;6.05;;;;;;;31.79;49.25;97031.43;128092;1092;25240;-89
2021/07/08 11:07:22;;;;;;;6.73;5.78;;;;;;;31.93;48.79;97022.27;128079;1092;22790;-88
2021/07/08 11:10:05;;;;;;;8.23;6.05;;;;;;;31.95;48.99;97017.16;127999;1093;24781;-89
2021/07/08 11:12:39;;;;;;;6.70;5.68;;;;;;;32.07;48.94;97018.59;127899;1093;25882;-89
2021/07/08 11:15:11;;;;;;;8.88;6.28;;;;;;;32.13;48.78;97011.48;127946;1093;23251;-89
2021/07/08 11:17:47;;;;;;;7.40;5.95;;;;;;;32.18;48.92;97011.80;128152;1092;25026;-88
2021/07/08 11:20:32;;;;;;;7.20;6.23;;;;;;;31.97;48.52;97003.06;128195;1093;27636;-89
2021/07/08 11:23:43;;;;;;;11.75;7.28;;;;;;;31.65;48.01;97004.13;128122;1093;24109;-89
2021/07/08 11:26:14;;;;;;;7.18;6.05;;;;;;;31.56;49.53;96999.14;127809;1093;30956;-88
2021/07/08 11:29:01;;;;;;;8.00;6.10;;;;;;;31.73;49.55;97002.91;127983;1093;25119;-87
2021/07/08 11:31:37;;;;;;;8.10;5.75;;;;;;;31.89;49.27;97002.35;127978;1091;26158;-87
2021/07/08 11:34:09;;;;;;;6.93;6.20;;;;;;;31.97;49.45;96989.34;128160;1093;29028;-88
2021/07/08 11:36:46;;;;;;;10.73;6.60;;;;;;;31.98;48.85;96985.41;128136;1091;23632;-89
2021/07/08 11:39:19;;;;;;;9.55;6.43;;;;;;;31.92;49.23;96989.78;128069;1093;25146;-88
2021/07/08 11:41:56;;;;;;;11.53;6.45;;;;;;;32.01;48.97;96984.59;128113;1093;26170;-88
2021/07/08 11:44:31;;;;;;;8.78;7.08;;;;;;;31.80;48.16;96980.89;127821;1093;24880;-88
2021/07/08 11:47:03;;;;;;;7.08;6.30;;;;;;;31.68;49.86;96975.92;127777;1093;24086;-89
2021/07/08 11:49:35;;;;;;;10.98;6.33;;;;;;;31.86;49.60;96973.78;128094;1093;23204;-88
2021/07/08 11:52:22;;;;;;;7.50;6.55;;;;;;;32.03;49.99;96968.50;128117;1092;23443;-87
2021/07/08 11:55:01;;;;;;;9.18;7.25;;;;;;;32.18;50.10;96958.90;128099;1093;24096;-87
2021/07/08 11:57:52;;;;;;;10.88;7.13;;;;;;;32.31;49.76;96970.91;128040;1093;33833;-88
2021/07/08 12:00:35;;;;;;;8.53;6.53;;;;;;;32.41;48.81;96969.22;128037;1093;23191;-88
2021/07/08 12:03:24;;;;;;;8.20;6.93;;;;;;;32.47;49.02;96964.81;128098;1093;24445;-87